createdAt,value
2023-11-10T00:00:10.681Z,7.76
2023-11-10T00:01:10.634Z,7.79
2023-11-10T00:02:10.557Z,7.79
2023-11-10T00:03:10.798Z,7.75
2023-11-10T00:04:10.893Z,7.81
2023-11-10T00:05:10.826Z,7.89
2023-11-10T00:06:10.620Z,7.88
2023-11-10T00:07:10.622Z,7.89
2023-11-10T00:08:10.520Z,7.89
2023-11-10T00:09:10.688Z,7.84
2023-11-10T00:10:10.526Z,7.82
2023-11-10T00:11:10.505Z,7.83
2023-11-10T00:12:10.597Z,7.80
2023-11-10T00:13:10.511Z,7.77
2023-11-10T00:14:13.794Z,7.77
2023-11-10T00:15:10.673Z,7.78
2023-11-10T00:16:11.497Z,7.75
2023-11-10T00:17:10.552Z,7.73
2023-11-10T00:18:10.479Z,7.73
2023-11-10T00:19:10.444Z,7.74
2023-11-10T00:20:10.475Z,7.78
2023-11-10T00:21:10.444Z,7.98
2023-11-10T00:22:11.902Z,8.10
2023-11-10T00:23:10.415Z,8.17
2023-11-10T00:24:10.562Z,8.14
2023-11-10T00:25:10.525Z,8.11
2023-11-10T00:26:10.526Z,8.08
2023-11-10T00:27:10.564Z,8.04
2023-11-10T00:28:10.536Z,7.99
2023-11-10T00:29:10.644Z,7.96
2023-11-10T00:30:10.704Z,7.92
2023-11-10T00:31:10.658Z,7.88
2023-11-10T00:32:10.777Z,7.76
2023-11-10T00:33:10.914Z,7.68
2023-11-10T00:34:10.864Z,7.66
2023-11-10T00:35:10.892Z,7.67
2023-11-10T00:36:10.833Z,7.70
2023-11-10T00:37:10.844Z,7.82
2023-11-10T00:38:10.906Z,8.13
2023-11-10T00:39:10.983Z,8.21
2023-11-10T00:40:11.014Z,8.15
2023-11-10T00:41:11.039Z,8.16
2023-11-10T00:42:11.067Z,8.16
2023-11-10T00:43:11.060Z,8.17
2023-11-10T00:44:11.064Z,8.15
2023-11-10T00:45:11.219Z,8.14
2023-11-10T00:46:11.192Z,8.12
2023-11-10T00:47:11.285Z,8.08
2023-11-10T00:48:11.347Z,8.09
2023-11-10T00:49:11.396Z,8.09
2023-11-10T00:50:11.587Z,8.08
2023-11-10T00:51:11.459Z,8.07
2023-11-10T00:52:11.416Z,8.07
2023-11-10T00:53:11.436Z,8.10
2023-11-10T00:54:11.556Z,8.07
2023-11-10T00:55:11.666Z,8.01
2023-11-10T00:56:11.522Z,7.98
2023-11-10T00:57:11.593Z,7.93
2023-11-10T00:58:11.556Z,7.81
2023-11-10T00:59:11.590Z,7.69
2023-11-10T01:00:11.668Z,7.56
2023-11-10T01:01:11.685Z,7.51
2023-11-10T01:02:11.765Z,7.48
2023-11-10T01:03:11.765Z,7.42
2023-11-10T01:04:12.076Z,7.36
2023-11-10T01:05:11.804Z,7.33
2023-11-10T01:06:12.206Z,7.27
2023-11-10T01:07:11.854Z,7.20
2023-11-10T01:08:11.952Z,7.16
2023-11-10T01:09:12.004Z,7.15
2023-11-10T01:10:11.934Z,7.17
2023-11-10T01:11:11.972Z,7.28
2023-11-10T01:12:12.105Z,7.35
2023-11-10T01:13:12.072Z,7.33
2023-11-10T01:14:12.077Z,7.25
2023-11-10T01:15:12.193Z,7.12
2023-11-10T01:16:12.094Z,7.04
2023-11-10T01:17:12.215Z,6.99
2023-11-10T01:18:13.015Z,6.87
2023-11-10T01:19:12.829Z,6.80
2023-11-10T01:20:12.203Z,6.68
2023-11-10T01:21:12.259Z,6.56
2023-11-10T01:22:12.242Z,6.51
2023-11-10T01:23:12.254Z,6.49
2023-11-10T01:24:12.374Z,6.48
2023-11-10T01:25:12.281Z,6.42
2023-11-10T01:26:12.250Z,6.35
2023-11-10T01:27:12.342Z,6.35
2023-11-10T01:28:12.282Z,6.48
2023-11-10T01:29:12.364Z,6.53
2023-11-10T01:30:12.337Z,6.53
2023-11-10T01:31:12.283Z,6.47
2023-11-10T01:32:12.313Z,6.39
2023-11-10T01:33:12.438Z,6.35
2023-11-10T01:34:12.978Z,6.35
2023-11-10T01:35:12.422Z,6.33
2023-11-10T01:36:12.416Z,6.34
2023-11-10T01:37:12.353Z,6.34
2023-11-10T01:38:12.365Z,6.33
2023-11-10T01:39:12.471Z,6.30
2023-11-10T01:40:12.479Z,6.27
2023-11-10T01:41:12.471Z,6.22
2023-11-10T01:42:12.644Z,6.22
2023-11-10T01:43:12.606Z,6.41
2023-11-10T01:44:12.698Z,6.50
2023-11-10T01:45:12.820Z,6.61
2023-11-10T01:46:12.738Z,6.61
2023-11-10T01:47:12.857Z,6.55
2023-11-10T01:48:12.786Z,6.46
2023-11-10T01:49:12.660Z,6.33
2023-11-10T01:50:12.647Z,6.11
2023-11-10T01:51:12.760Z,6.04
2023-11-10T01:52:12.748Z,6.01
2023-11-10T01:53:12.845Z,5.99
2023-11-10T01:54:12.902Z,5.97
2023-11-10T01:55:12.901Z,5.94
2023-11-10T01:56:13.404Z,5.91
2023-11-10T01:57:12.951Z,5.90
2023-11-10T01:58:13.089Z,5.98
2023-11-10T01:59:12.905Z,6.29
2023-11-10T02:00:12.933Z,6.62
2023-11-10T02:01:13.834Z,6.85
2023-11-10T02:02:13.074Z,6.84
2023-11-10T02:03:13.068Z,6.71
2023-11-10T02:04:13.028Z,6.56
2023-11-10T02:05:13.042Z,6.40
2023-11-10T02:06:13.063Z,6.33
2023-11-10T02:07:13.046Z,6.26
2023-11-10T02:08:13.113Z,6.13
2023-11-10T02:09:13.011Z,6.04
2023-11-10T02:10:13.038Z,5.97
2023-11-10T02:11:13.076Z,5.86
2023-11-10T02:12:13.130Z,5.80
2023-11-10T02:13:13.914Z,5.78
2023-11-10T02:14:13.192Z,5.75
2023-11-10T02:15:13.247Z,5.88
2023-11-10T02:16:13.482Z,5.82
2023-11-10T02:17:13.304Z,5.81
2023-11-10T02:18:13.366Z,5.68
2023-11-10T02:19:13.434Z,5.62
2023-11-10T02:20:13.508Z,5.62
2023-11-10T02:21:13.704Z,5.61
2023-11-10T02:22:13.598Z,5.61
2023-11-10T02:23:14.406Z,5.56
2023-11-10T02:24:13.729Z,5.50
2023-11-10T02:25:13.811Z,5.48
2023-11-10T02:26:13.806Z,5.44
2023-11-10T02:27:13.865Z,5.40
2023-11-10T02:28:13.779Z,5.40
2023-11-10T02:29:13.819Z,5.40
2023-11-10T02:30:14.358Z,5.39
2023-11-10T02:31:13.998Z,5.41
2023-11-10T02:32:13.931Z,5.45
2023-11-10T02:33:14.067Z,5.75
2023-11-10T02:34:13.964Z,5.91
2023-11-10T02:35:14.078Z,6.01
2023-11-10T02:36:14.150Z,5.81
2023-11-10T02:37:14.390Z,5.69
2023-11-10T02:38:17.366Z,5.63
2023-11-10T02:39:14.130Z,5.60
2023-11-10T02:40:14.104Z,5.58
2023-11-10T02:41:14.106Z,5.58
2023-11-10T02:42:14.140Z,5.58
2023-11-10T02:43:14.081Z,5.50
2023-11-10T02:44:14.162Z,5.50
2023-11-10T02:58:55.437Z,4.95
2023-11-10T02:59:55.407Z,5.16
2023-11-10T03:00:55.371Z,5.15
2023-11-10T03:01:55.111Z,5.09
2023-11-10T03:02:55.139Z,5.06
2023-11-10T03:03:55.133Z,5.03
2023-11-10T03:34:26.833Z,4.80
2023-11-10T03:35:19.140Z,4.85
2023-11-10T03:36:18.233Z,4.94
2023-11-10T03:37:18.044Z,5.21
2023-11-10T03:38:18.077Z,5.51
2023-11-10T03:39:18.016Z,5.64
2023-11-10T03:40:18.080Z,5.67
2023-11-10T03:41:18.205Z,5.69
2023-11-10T03:54:58.658Z,5.86
2023-11-10T03:55:58.342Z,6.07
2023-11-10T03:56:59.361Z,6.09
2023-11-10T03:57:58.047Z,6.08
2023-11-10T03:58:58.060Z,5.99
2023-11-10T03:59:58.134Z,5.88
2023-11-10T04:00:58.082Z,5.63
2023-11-10T04:01:58.057Z,5.51
2023-11-10T04:02:58.102Z,5.48
2023-11-10T04:03:58.114Z,5.39
2023-11-10T04:04:58.087Z,5.26
2023-11-10T04:05:58.102Z,5.17
2023-11-10T04:06:58.099Z,5.15
2023-11-10T04:07:58.045Z,5.11
2023-11-10T04:08:58.024Z,5.11
2023-11-10T04:09:58.066Z,5.00
2023-11-10T04:10:57.988Z,4.97
2023-11-10T04:11:58.668Z,4.98
2023-11-10T04:12:58.874Z,5.02
2023-11-10T04:13:58.015Z,5.03
2023-11-10T04:14:58.069Z,5.02
2023-11-10T04:15:58.242Z,5.03
2023-11-10T04:16:58.151Z,5.02
2023-11-10T04:17:58.130Z,5.01
2023-11-10T04:18:58.059Z,4.99
2023-11-10T04:19:57.996Z,4.97
2023-11-10T04:20:58.082Z,4.93
2023-11-10T04:21:58.181Z,4.83
2023-11-10T04:22:58.231Z,4.76
2023-11-10T04:23:58.346Z,4.75
2023-11-10T04:24:58.105Z,4.80
2023-11-10T04:25:58.245Z,5.03
2023-11-10T04:26:58.147Z,5.11
2023-11-10T04:27:58.237Z,4.99
2023-11-10T04:28:58.373Z,4.94
2023-11-10T04:29:58.325Z,4.94
2023-11-10T04:30:58.611Z,4.97
2023-11-10T04:31:58.409Z,4.99
2023-11-10T04:32:58.446Z,4.93
2023-11-10T04:33:58.551Z,4.90
2023-11-10T04:34:58.422Z,4.90
2023-11-10T04:35:58.526Z,4.92
2023-11-10T04:36:58.526Z,4.94
2023-11-10T04:37:58.532Z,4.95
2023-11-10T04:38:58.699Z,4.97
2023-11-10T04:39:58.642Z,4.99
2023-11-10T04:40:58.548Z,4.99
2023-11-10T04:41:58.556Z,5.01
2023-11-10T04:42:58.876Z,5.19
2023-11-10T04:43:58.599Z,5.59
2023-11-10T04:44:58.624Z,5.83
2023-11-10T04:45:58.626Z,5.90
2023-11-10T04:46:58.592Z,5.82
2023-11-10T04:47:58.606Z,5.79
2023-11-10T04:48:58.592Z,5.77
2023-11-10T04:49:58.686Z,5.68
2023-11-10T04:50:59.849Z,5.56
2023-11-10T04:51:58.824Z,5.51
2023-11-10T04:52:58.911Z,5.49
2023-11-10T04:53:58.833Z,5.46
2023-11-10T04:54:58.947Z,5.40
2023-11-10T04:55:58.879Z,5.29
2023-11-10T04:56:59.956Z,5.24
2023-11-10T04:57:58.954Z,5.22
2023-11-10T04:58:59.146Z,5.30
2023-11-10T04:59:58.992Z,5.28
2023-11-10T05:00:59.350Z,5.49
2023-11-10T05:01:59.195Z,5.59
2023-11-10T05:02:59.561Z,5.54
2023-11-10T05:03:59.121Z,5.50
2023-11-10T05:05:00.401Z,5.47
2023-11-10T05:05:59.110Z,5.43
2023-11-10T05:06:59.123Z,5.41
2023-11-10T05:13:32.925Z,5.01
2023-11-10T05:14:34.786Z,5.03
2023-11-10T05:15:32.798Z,4.99
2023-11-10T05:16:32.530Z,4.90
2023-11-10T05:17:31.962Z,4.86
2023-11-10T05:19:32.087Z,4.93
2023-11-10T05:20:32.051Z,4.93
2023-11-10T05:21:32.017Z,4.92
2023-11-10T05:22:31.967Z,4.91
2023-11-10T05:23:31.979Z,4.83
2023-11-10T05:24:32.088Z,4.77
2023-11-10T05:25:31.902Z,4.78
2023-11-10T05:26:31.915Z,4.76
2023-11-10T05:27:31.924Z,4.75
2023-11-10T05:28:31.905Z,4.73
2023-11-10T05:29:31.822Z,4.73
2023-11-10T05:30:32.756Z,4.73
2023-11-10T05:31:31.877Z,4.73
2023-11-10T05:32:32.908Z,4.93
2023-11-10T05:33:31.906Z,5.06
2023-11-10T05:34:31.911Z,5.06
2023-11-10T05:35:31.865Z,5.07
2023-11-10T05:36:31.927Z,5.03
2023-11-10T05:37:31.792Z,5.02
2023-11-10T05:38:31.801Z,4.98
2023-11-10T05:39:32.731Z,4.96
2023-11-10T05:40:31.806Z,4.92
2023-11-10T05:41:31.817Z,4.89
2023-11-10T05:42:31.861Z,4.88
2023-11-10T05:43:31.833Z,4.90
2023-11-10T05:44:31.819Z,4.91
2023-11-10T05:45:31.873Z,4.86
2023-11-10T05:46:31.770Z,4.83
2023-11-10T05:47:31.776Z,4.90
2023-11-10T05:48:31.736Z,4.93
2023-11-10T05:49:31.750Z,4.94
2023-11-10T05:50:32.287Z,4.97
2023-11-10T05:51:31.802Z,4.98
2023-11-10T05:52:31.680Z,4.94
2023-11-10T05:53:31.785Z,4.94
2023-11-10T05:54:31.692Z,4.94
2023-11-10T05:55:31.952Z,4.93
2023-11-10T05:56:31.685Z,4.88
2023-11-10T05:57:31.822Z,4.86
2023-11-10T05:58:31.726Z,4.83
2023-11-10T05:59:31.609Z,4.78
2023-11-10T06:00:31.677Z,4.72
2023-11-10T06:01:31.651Z,4.67
2023-11-10T06:02:31.723Z,4.64
2023-11-10T06:03:31.727Z,4.64
2023-11-10T06:04:35.218Z,4.64
2023-11-10T06:05:31.661Z,4.64
2023-11-10T06:06:31.615Z,4.64
2023-11-10T06:07:31.665Z,4.63
2023-11-10T06:08:32.211Z,4.63
2023-11-10T06:09:31.630Z,4.61
2023-11-10T06:10:31.597Z,4.62
2023-11-10T06:11:39.454Z,4.64
2023-11-10T06:12:32.661Z,4.63
2023-11-10T06:13:34.225Z,4.61
2023-11-10T06:14:31.622Z,4.61
2023-11-10T06:15:31.544Z,4.61
2023-11-10T06:16:31.579Z,4.59
2023-11-10T06:17:31.545Z,4.51
2023-11-10T06:18:31.596Z,4.44
2023-11-10T06:19:31.535Z,4.44
2023-11-10T06:20:31.462Z,4.52
2023-11-10T06:21:31.524Z,4.55
2023-11-10T06:22:31.517Z,4.76
2023-11-10T06:23:31.499Z,4.79
2023-11-10T06:24:31.647Z,4.74
2023-11-10T06:25:31.481Z,4.71
2023-11-10T06:26:31.480Z,4.71
2023-11-10T06:27:31.556Z,4.69
2023-11-10T06:28:31.496Z,4.68
2023-11-10T06:29:31.549Z,4.67
2023-11-10T06:30:31.740Z,4.65
2023-11-10T06:31:31.587Z,4.64
2023-11-10T06:32:31.464Z,4.64
2023-11-10T06:33:31.460Z,4.53
2023-11-10T06:34:31.478Z,4.45
2023-11-10T06:35:32.185Z,4.46
2023-11-10T06:36:31.521Z,4.49
2023-11-10T06:37:31.485Z,4.51
2023-11-10T06:38:31.494Z,4.68
2023-11-10T06:39:31.570Z,4.71
2023-11-10T06:40:31.385Z,4.73
2023-11-10T06:41:31.391Z,4.74
2023-11-10T06:42:31.362Z,4.71
2023-11-10T06:43:31.476Z,4.71
2023-11-10T06:44:31.413Z,4.69
2023-11-10T06:45:31.460Z,4.71
2023-11-10T06:46:31.467Z,4.73
2023-11-10T06:47:31.603Z,4.73
2023-11-10T06:48:31.346Z,4.70
2023-11-10T06:49:31.296Z,4.71
2023-11-10T06:50:31.371Z,4.71
2023-11-10T06:51:31.807Z,4.69
2023-11-10T06:52:31.359Z,4.62
2023-11-10T06:53:31.775Z,4.51
2023-11-10T06:54:31.316Z,4.49
2023-11-10T06:55:31.369Z,4.50
2023-11-10T06:56:32.197Z,4.50
2023-11-10T06:57:31.307Z,4.53
2023-11-10T06:58:31.305Z,4.53
2023-11-10T06:59:31.226Z,4.54
2023-11-10T07:00:31.343Z,4.56
2023-11-10T07:01:31.226Z,4.53
2023-11-10T07:02:31.303Z,4.49
2023-11-10T07:03:31.331Z,4.46
2023-11-10T07:04:32.270Z,4.42
2023-11-10T07:05:31.316Z,4.35
2023-11-10T07:06:31.366Z,4.34
2023-11-10T07:07:32.178Z,4.37
2023-11-10T07:08:31.500Z,4.43
2023-11-10T07:09:31.498Z,4.56
2023-11-10T07:10:31.616Z,4.58
2023-11-10T07:11:31.694Z,4.52
2023-11-10T07:12:31.642Z,4.46
2023-11-10T07:13:31.973Z,4.43
2023-11-10T07:14:31.701Z,4.40
2023-11-10T07:15:31.834Z,4.36
2023-11-10T07:16:31.827Z,4.35
2023-11-10T07:17:31.824Z,4.35
2023-11-10T07:18:31.874Z,4.34
2023-11-10T07:19:31.753Z,4.33
2023-11-10T07:20:31.865Z,4.34
2023-11-10T07:21:31.903Z,4.37
2023-11-10T07:22:31.879Z,4.40
2023-11-10T07:23:31.889Z,4.42
2023-11-10T07:24:31.913Z,4.48
2023-11-10T07:25:32.011Z,4.63
2023-11-10T07:26:32.096Z,4.67
2023-11-10T07:27:32.075Z,4.66
2023-11-10T07:28:32.196Z,4.65
2023-11-10T07:29:32.157Z,4.64
2023-11-10T07:30:33.337Z,4.64
2023-11-10T07:31:32.265Z,4.66
2023-11-10T07:32:32.386Z,4.67
2023-11-10T07:33:32.484Z,4.63
2023-11-10T07:34:32.399Z,4.60
2023-11-10T07:35:32.478Z,4.56
2023-11-10T07:36:32.542Z,4.51
2023-11-10T07:37:32.499Z,4.52
2023-11-10T07:38:32.634Z,4.53
2023-11-10T07:39:32.730Z,4.57
2023-11-10T07:40:32.709Z,4.60
2023-11-10T07:41:32.742Z,4.63
2023-11-10T07:42:32.689Z,4.67
2023-11-10T07:43:32.746Z,4.72
2023-11-10T07:44:32.858Z,4.69
2023-11-10T07:45:32.879Z,4.67
2023-11-10T07:46:32.869Z,4.64
2023-11-10T07:47:32.893Z,4.68
2023-11-10T07:48:32.912Z,4.73
2023-11-10T07:49:32.905Z,4.77
2023-11-10T07:50:32.920Z,4.80
2023-11-10T07:51:32.974Z,4.78
2023-11-10T07:52:33.712Z,4.78
2023-11-10T07:53:33.048Z,4.77
2023-11-10T07:54:33.080Z,4.78
2023-11-10T07:55:33.138Z,4.80
2023-11-10T07:56:34.073Z,4.86
2023-11-10T07:57:33.173Z,4.91
2023-11-10T07:58:33.209Z,4.93
2023-11-10T07:59:33.181Z,4.96
2023-11-10T08:00:33.226Z,5.03
2023-11-10T08:01:33.333Z,5.14
2023-11-10T08:02:33.583Z,5.26
2023-11-10T08:03:33.422Z,5.35
2023-11-10T08:04:33.389Z,5.41
2023-11-10T08:05:34.342Z,5.51
2023-11-10T08:06:34.170Z,5.61
2023-11-10T08:07:33.435Z,5.82
2023-11-10T08:08:33.480Z,6.06
2023-11-10T08:09:33.541Z,6.31
2023-11-10T08:10:33.665Z,6.55
2023-11-10T08:11:42.407Z,6.80
2023-11-10T08:12:34.592Z,7.51
2023-11-10T08:13:33.559Z,8.59
2023-11-10T08:14:33.650Z,9.95
2023-11-10T08:15:33.736Z,11.36
2023-11-10T08:16:33.528Z,12.96
2023-11-10T08:17:33.549Z,14.12
2023-11-10T08:18:33.507Z,15.49
2023-11-10T08:19:33.574Z,16.64
2023-11-10T08:20:33.773Z,17.68
2023-11-10T08:21:34.838Z,18.53
2023-11-10T08:22:34.436Z,19.47
2023-11-10T08:23:33.493Z,20.30
2023-11-10T08:24:33.572Z,21.08
2023-11-10T08:25:33.438Z,21.80
2023-11-10T08:26:33.545Z,22.26
2023-11-10T08:27:33.517Z,22.86
2023-11-10T08:28:34.266Z,23.24
2023-11-10T08:29:33.527Z,23.88
2023-11-10T08:30:37.639Z,24.63
2023-11-10T08:31:35.233Z,25.22
2023-11-10T08:32:33.738Z,25.73
2023-11-10T08:33:33.531Z,26.17
2023-11-10T08:34:33.517Z,26.16
2023-11-10T08:35:33.430Z,25.25
2023-11-10T08:36:33.369Z,25.42
2023-11-10T08:37:36.608Z,26.16
2023-11-10T08:38:33.394Z,26.70
2023-11-10T08:39:33.424Z,26.79
2023-11-10T08:40:35.421Z,26.79
2023-11-10T08:41:33.364Z,27.10
2023-11-10T08:42:33.405Z,27.76
2023-11-10T08:43:33.452Z,28.37
2023-11-10T08:44:33.376Z,28.59
2023-11-10T08:45:37.768Z,28.40
2023-11-10T08:46:33.441Z,28.90
2023-11-10T08:47:33.411Z,29.13
2023-11-10T08:48:34.240Z,28.85
2023-11-10T08:49:33.364Z,28.67
2023-11-10T08:50:33.388Z,28.89
2023-11-10T08:51:33.786Z,28.90
2023-11-10T08:52:34.305Z,29.43
2023-11-10T08:53:44.865Z,29.30
2023-11-10T08:54:35.355Z,29.68
2023-11-10T08:55:33.721Z,29.88
2023-11-10T08:56:34.735Z,30.53
2023-11-10T08:57:33.787Z,30.99
2023-11-10T08:58:33.736Z,31.19
2023-11-10T08:59:35.438Z,31.46
2023-11-10T09:00:34.047Z,31.36
2023-11-10T09:01:40.872Z,30.33
2023-11-10T09:02:35.679Z,28.98
2023-11-10T09:03:34.012Z,27.80
2023-11-10T09:04:33.790Z,28.33
2023-11-10T09:05:33.737Z,29.29
2023-11-10T09:06:34.095Z,29.11
2023-11-10T09:07:33.768Z,28.57
2023-11-10T09:08:34.776Z,28.32
2023-11-10T09:09:33.708Z,29.45
2023-11-10T09:13:55.570Z,30.85
2023-11-10T09:14:55.769Z,31.45
2023-11-10T09:16:01.978Z,31.50
2023-11-10T09:16:58.174Z,31.94
2023-11-10T09:17:55.413Z,32.11
2023-11-10T09:18:58.515Z,32.77
2023-11-10T09:19:55.509Z,33.03
2023-11-10T09:20:55.413Z,33.55
2023-11-10T09:21:55.369Z,33.48
2023-11-10T09:22:55.356Z,33.49
2023-11-10T09:23:55.429Z,33.00
2023-11-10T09:24:58.113Z,31.69
2023-11-10T09:25:55.374Z,30.31
2023-11-10T09:26:55.384Z,30.08
2023-11-10T09:27:55.318Z,29.85
2023-11-10T09:28:57.429Z,29.91
2023-11-10T09:29:55.400Z,29.12
2023-11-10T09:30:56.458Z,28.79
2023-11-10T09:31:55.416Z,29.47
2023-11-10T09:32:55.337Z,30.13
2023-11-10T09:33:55.339Z,30.65
2023-11-10T09:34:55.251Z,30.21
2023-11-10T09:35:55.249Z,30.61
2023-11-10T09:36:56.488Z,30.58
2023-11-10T09:37:56.184Z,29.83
2023-11-10T09:38:57.461Z,30.00
2023-11-10T09:40:08.484Z,29.81
2023-11-10T09:40:56.432Z,29.87
2023-11-10T09:42:01.423Z,30.46
2023-11-10T09:42:56.337Z,31.15
2023-11-10T09:44:07.128Z,31.81
2023-11-10T09:44:57.531Z,32.77
2023-11-10T09:45:55.440Z,33.50
2023-11-10T09:46:55.496Z,33.90
2023-11-10T09:47:55.478Z,33.79
2023-11-10T09:48:55.485Z,34.16
2023-11-10T09:49:55.412Z,34.69
2023-11-10T09:50:55.480Z,35.11
2023-11-10T09:51:55.580Z,35.64
2023-11-10T09:52:55.484Z,35.09
2023-11-10T09:53:55.580Z,34.49
2023-11-10T09:54:58.569Z,33.26
2023-11-10T09:55:56.196Z,32.33
2023-11-10T09:56:56.102Z,31.81
2023-11-10T09:57:55.806Z,31.15
2023-11-10T09:58:55.729Z,30.46
2023-11-10T09:59:55.634Z,29.83
2023-11-10T10:00:55.708Z,30.05
2023-11-10T10:01:55.748Z,30.35
2023-11-10T10:02:55.661Z,31.07
2023-11-10T10:03:55.676Z,31.35
2023-11-10T10:04:56.516Z,31.64
2023-11-10T10:05:55.611Z,31.81
2023-11-10T10:06:55.550Z,31.63
2023-11-10T10:07:55.593Z,31.26
2023-11-10T10:08:55.598Z,30.84
2023-11-10T10:09:55.612Z,30.70
2023-11-10T10:10:55.604Z,30.64
2023-11-10T10:11:55.381Z,30.73
2023-11-10T10:12:55.443Z,30.69
2023-11-10T10:13:57.027Z,30.85
2023-11-10T10:14:55.644Z,30.61
2023-11-10T10:15:58.159Z,30.45
2023-11-10T10:16:55.443Z,30.44
2023-11-10T10:17:55.532Z,30.43
2023-11-10T10:18:56.268Z,30.81
2023-11-10T10:19:55.481Z,30.30
2023-11-10T10:20:55.993Z,30.13
2023-11-10T10:21:55.625Z,30.30
2023-11-10T10:22:58.112Z,30.57
2023-11-10T10:23:55.470Z,30.77
2023-11-10T10:24:55.447Z,31.19
2023-11-10T10:25:56.124Z,31.60
2023-11-10T10:26:55.467Z,31.85
2023-11-10T10:27:55.462Z,32.18
2023-11-10T10:28:55.399Z,32.18
2023-11-10T10:29:56.123Z,32.06
2023-11-10T10:30:57.093Z,31.90
2023-11-10T10:31:55.451Z,31.55
2023-11-10T10:32:55.472Z,31.41
2023-11-10T10:33:55.393Z,31.43
2023-11-10T10:34:55.363Z,31.76
2023-11-10T10:35:55.348Z,32.21
2023-11-10T10:36:55.425Z,32.49
2023-11-10T10:37:56.240Z,32.67
2023-11-10T10:38:56.305Z,32.85
2023-11-10T10:39:56.147Z,32.82
2023-11-10T10:40:55.388Z,31.63
2023-11-10T10:41:55.378Z,30.85
2023-11-10T10:42:55.720Z,29.75
2023-11-10T10:44:06.125Z,29.26
2023-11-10T10:44:57.963Z,28.55
2023-11-10T10:45:55.411Z,28.14
2023-11-10T10:46:55.336Z,28.13
2023-11-10T10:47:55.349Z,28.17
2023-11-10T10:48:55.373Z,27.02
2023-11-10T10:49:55.246Z,27.15
2023-11-10T10:50:55.241Z,28.53
2023-11-10T10:51:55.553Z,28.75
2023-11-10T10:52:55.193Z,28.57
2023-11-10T10:53:55.277Z,29.11
2023-11-10T10:54:55.234Z,30.45
2023-11-10T10:55:55.200Z,31.17
2023-11-10T10:56:55.211Z,31.35
2023-11-10T10:57:55.284Z,31.27
2023-11-10T10:58:55.295Z,31.53
2023-11-10T10:59:55.189Z,30.44
2023-11-10T11:00:55.152Z,30.27
2023-11-10T11:03:35.620Z,28.91
2023-11-10T11:04:34.869Z,28.81
2023-11-10T11:05:34.500Z,28.72
2023-11-10T11:06:34.528Z,27.45
2023-11-10T11:07:34.569Z,26.41
2023-11-10T11:08:34.523Z,25.88
2023-11-10T11:09:35.558Z,24.53
2023-11-10T11:10:34.438Z,25.20
2023-11-10T11:11:34.442Z,26.03
2023-11-10T11:12:34.689Z,26.76
2023-11-10T11:13:34.481Z,26.91
2023-11-10T11:14:35.527Z,26.55
2023-11-10T11:15:34.565Z,26.59
2023-11-10T11:16:34.480Z,26.96
2023-11-10T11:17:34.475Z,27.61
2023-11-10T11:18:34.560Z,28.05
2023-11-10T11:19:35.530Z,28.42
2023-11-10T11:20:34.678Z,28.52
2023-11-10T11:21:34.991Z,28.24
2023-11-10T11:22:34.576Z,28.55
2023-11-10T11:23:34.678Z,28.82
2023-11-10T11:24:34.741Z,29.08
2023-11-10T11:25:34.715Z,29.46
2023-11-10T11:26:34.762Z,29.18
2023-11-10T11:27:34.770Z,29.40
2023-11-10T11:28:35.984Z,29.86
2023-11-10T11:29:35.570Z,30.21
2023-11-10T11:30:34.996Z,30.53
2023-11-10T11:31:34.946Z,30.48
2023-11-10T11:32:36.958Z,30.46
2023-11-10T11:33:37.621Z,28.70
2023-11-10T11:34:34.911Z,27.48
2023-11-10T11:35:34.963Z,27.55
2023-11-10T11:36:35.094Z,28.13
2023-11-10T11:37:35.036Z,28.62
2023-11-10T11:38:36.909Z,29.08
2023-11-10T11:39:37.037Z,27.96
2023-11-10T11:40:35.120Z,26.46
2023-11-10T11:41:36.000Z,25.75
2023-11-10T11:42:34.985Z,25.97
2023-11-10T11:43:34.904Z,26.31
2023-11-10T11:44:36.029Z,26.88
2023-11-10T11:45:34.907Z,25.90
2023-11-10T11:46:36.098Z,25.27
2023-11-10T11:47:34.890Z,24.83
2023-11-10T11:48:34.965Z,23.88
2023-11-10T11:49:35.581Z,22.87
2023-11-10T11:50:36.446Z,22.14
2023-11-10T11:51:36.985Z,21.82
2023-11-10T11:52:34.828Z,22.12
2023-11-10T11:53:34.823Z,22.51
2023-11-10T11:54:35.549Z,23.40
2023-11-10T11:55:34.750Z,24.34
2023-11-10T11:56:35.649Z,25.14
2023-11-10T11:57:35.186Z,25.68
2023-11-10T11:58:34.767Z,25.72
2023-11-10T11:59:34.973Z,25.69
2023-11-10T12:00:35.000Z,25.16
2023-11-10T12:01:34.876Z,24.74
2023-11-10T12:02:37.802Z,24.56
2023-11-10T12:03:35.198Z,24.72
2023-11-10T12:04:36.053Z,25.13
2023-11-10T12:05:34.987Z,25.28
2023-11-10T12:06:35.032Z,24.44
2023-11-10T12:07:34.926Z,23.48
2023-11-10T12:08:35.657Z,22.73
2023-11-10T12:09:35.676Z,22.24
2023-11-10T12:10:35.576Z,21.83
2023-11-10T12:11:34.956Z,20.99
2023-11-10T12:12:35.082Z,20.17
2023-11-10T12:13:35.453Z,19.46
2023-11-10T12:14:34.880Z,18.55
2023-11-10T12:15:38.030Z,17.92
2023-11-10T12:16:39.166Z,17.82
2023-11-10T12:17:35.848Z,17.77
2023-11-10T12:18:35.630Z,17.43
2023-11-10T12:19:35.421Z,17.11
2023-11-10T12:20:34.919Z,17.15
2023-11-10T12:21:37.732Z,17.24
2023-11-10T12:22:34.829Z,17.27
2023-11-10T12:23:35.014Z,17.12
2023-11-10T12:24:34.932Z,17.02
2023-11-10T12:25:34.827Z,16.84
2023-11-10T12:26:35.977Z,16.70
2023-11-10T12:27:36.115Z,16.60
2023-11-10T12:28:34.840Z,16.58
2023-11-10T12:29:34.862Z,16.44
2023-11-10T12:30:35.700Z,16.37
2023-11-10T12:31:34.989Z,16.35
2023-11-10T12:32:35.709Z,16.32
2023-11-10T12:33:36.046Z,16.42
2023-11-10T12:34:34.934Z,16.49
2023-11-10T12:35:34.920Z,16.52
2023-11-10T12:36:35.755Z,16.46
2023-11-10T12:37:34.938Z,16.17
2023-11-10T12:38:34.804Z,15.87
2023-11-10T12:39:34.780Z,15.63
2023-11-10T12:40:35.561Z,15.32
2023-11-10T12:41:35.273Z,15.24
2023-11-10T12:42:34.757Z,15.29
2023-11-10T12:43:34.738Z,15.34
2023-11-10T12:44:34.820Z,15.32
2023-11-10T12:45:34.743Z,15.23
2023-11-10T12:46:34.772Z,15.31
2023-11-10T12:47:35.843Z,15.40
2023-11-10T12:48:34.809Z,15.42
2023-11-10T12:49:34.684Z,15.42
2023-11-10T12:50:34.717Z,15.46
2023-11-10T12:51:35.667Z,15.54
2023-11-10T12:52:34.812Z,15.61
2023-11-10T12:53:35.474Z,15.61
2023-11-10T12:54:34.718Z,15.48
2023-11-10T12:55:34.537Z,15.32
2023-11-10T12:56:34.658Z,15.23
2023-11-10T12:57:35.688Z,15.17
2023-11-10T12:58:34.744Z,15.13
2023-11-10T12:59:35.712Z,15.05
2023-11-10T13:00:34.776Z,15.01
2023-11-10T13:01:35.104Z,15.06
2023-11-10T13:02:34.979Z,15.10
2023-11-10T13:03:35.187Z,15.11
2023-11-10T13:04:34.952Z,15.15
2023-11-10T13:05:37.784Z,15.17
2023-11-10T13:06:35.894Z,15.21
2023-11-10T13:07:35.251Z,15.21
2023-11-10T13:08:35.144Z,15.18
2023-11-10T13:09:35.041Z,15.17
2023-11-10T13:10:35.063Z,15.18
2023-11-10T13:11:35.079Z,15.10
2023-11-10T13:12:34.980Z,14.83
2023-11-10T13:13:34.973Z,14.78
2023-11-10T13:14:34.902Z,14.78
2023-11-10T13:15:35.763Z,14.69
2023-11-10T13:16:35.022Z,14.59
2023-11-10T13:17:35.343Z,14.46
2023-11-10T13:18:35.240Z,14.36
2023-11-10T13:19:34.904Z,14.35
2023-11-10T13:20:36.411Z,14.45
2023-11-10T13:21:35.364Z,14.56
2023-11-10T13:22:36.476Z,14.66
2023-11-10T13:23:34.934Z,14.67
2023-11-10T13:24:34.958Z,14.73
2023-11-10T13:25:34.972Z,14.72
2023-11-10T13:26:35.169Z,14.66
2023-11-10T13:27:34.973Z,14.68
2023-11-10T13:28:41.753Z,14.72
2023-11-10T13:29:36.208Z,14.76
2023-11-10T13:30:36.563Z,14.76
2023-11-10T13:31:36.008Z,14.74
2023-11-10T13:32:35.168Z,14.73
2023-11-10T13:33:35.016Z,14.72
2023-11-10T13:34:35.220Z,14.69
2023-11-10T13:35:35.425Z,14.60
2023-11-10T13:36:34.940Z,14.51
2023-11-10T13:37:34.835Z,14.55
2023-11-10T13:38:34.720Z,14.56
2023-11-10T13:39:34.774Z,14.52
2023-11-10T13:40:34.769Z,14.43
2023-11-10T13:41:41.049Z,14.32
2023-11-10T13:42:35.720Z,14.29
2023-11-10T13:43:35.661Z,14.29
2023-11-10T13:44:34.856Z,14.25
2023-11-10T13:45:34.766Z,14.21
2023-11-10T13:46:34.785Z,14.20
2023-11-10T13:47:34.794Z,14.13
2023-11-10T13:48:34.685Z,14.11
2023-11-10T13:49:34.893Z,14.06
2023-11-10T13:50:35.489Z,13.88
2023-11-10T13:51:37.947Z,13.75
2023-11-10T13:52:35.618Z,13.72
2023-11-10T13:53:34.719Z,13.72
2023-11-10T13:54:34.827Z,13.67
2023-11-10T13:55:34.779Z,13.58
2023-11-10T13:56:35.726Z,13.48
2023-11-10T13:57:35.003Z,13.41
2023-11-10T13:58:34.757Z,13.33
2023-11-10T13:59:34.981Z,13.18
2023-11-10T14:00:34.816Z,12.94
2023-11-10T14:01:34.781Z,12.62
2023-11-10T14:02:34.840Z,12.38
2023-11-10T14:03:36.237Z,12.17
2023-11-10T14:04:34.950Z,11.96
2023-11-10T14:05:34.779Z,11.73
2023-11-10T14:06:34.736Z,11.64
2023-11-10T14:07:34.629Z,11.54
2023-11-10T14:08:34.659Z,11.47
2023-11-10T14:09:34.986Z,11.35
2023-11-10T14:10:36.725Z,11.21
2023-11-10T14:11:34.881Z,11.08
2023-11-10T14:12:34.996Z,11.02
2023-11-10T14:13:34.789Z,10.95